createdAt,value
2022-09-07T00:01:16.586Z,16.90
2022-09-07T00:03:19.471Z,17.30
2022-09-07T00:05:21.860Z,19.00
2022-09-07T00:07:23.971Z,19.10
2022-09-07T00:09:26.176Z,17.50
2022-09-07T00:11:28.860Z,17.33
2022-09-07T00:13:33.280Z,15.87
2022-09-07T00:15:39.472Z,15.80
2022-09-07T00:17:42.058Z,17.40
2022-09-07T00:19:44.209Z,18.03
2022-09-07T00:21:46.451Z,18.97
2022-09-07T00:23:49.802Z,16.30
2022-09-07T00:25:54.082Z,15.40
2022-09-07T00:27:56.480Z,14.80
2022-09-07T00:29:58.588Z,16.37
2022-09-07T00:32:00.753Z,16.83
2022-09-07T00:34:03.085Z,20.53
2022-09-07T00:36:05.727Z,24.10
2022-09-07T00:38:08.643Z,18.53
2022-09-07T00:40:10.981Z,20.63
2022-09-07T00:42:13.131Z,17.63
2022-09-07T00:44:43.275Z,21.00
2022-09-07T00:46:46.975Z,17.70
2022-09-07T00:49:08.224Z,17.33
2022-09-07T00:51:15.504Z,18.00
2022-09-07T00:53:27.421Z,16.60
2022-09-07T00:55:30.375Z,18.63
2022-09-07T00:57:33.076Z,14.50
2022-09-07T00:59:39.841Z,15.10
2022-09-07T01:01:42.047Z,15.83
2022-09-07T01:03:48.878Z,15.37
2022-09-07T01:05:57.656Z,16.33
2022-09-07T01:07:59.859Z,26.07
2022-09-07T01:10:02.152Z,17.73
2022-09-07T01:12:05.463Z,18.33
2022-09-07T01:14:09.518Z,17.07
2022-09-07T01:16:21.574Z,14.60
2022-09-07T01:18:32.241Z,19.47
2022-09-07T01:21:03.697Z,15.03
2022-09-07T01:23:20.074Z,18.47
2022-09-07T01:25:32.555Z,16.63
2022-09-07T01:27:40.705Z,25.03
2022-09-07T01:29:48.867Z,19.50
2022-09-07T01:32:05.384Z,16.10
2022-09-07T01:34:23.341Z,16.10
2022-09-07T01:36:40.740Z,17.10
2022-09-07T01:38:55.976Z,16.20
2022-09-07T01:41:14.325Z,17.37
2022-09-07T01:43:29.195Z,18.03
2022-09-07T01:45:34.570Z,13.87
2022-09-07T01:47:54.312Z,14.37
2022-09-07T01:50:02.713Z,13.40
2022-09-07T01:52:38.385Z,16.27
2022-09-07T01:55:01.424Z,16.37
2022-09-07T01:57:10.402Z,15.60
2022-09-07T01:59:33.005Z,15.67
2022-09-07T02:01:50.285Z,17.27
2022-09-07T02:03:59.480Z,14.93
2022-09-07T02:06:14.185Z,14.30
2022-09-07T02:08:22.180Z,14.57
2022-09-07T02:10:33.309Z,13.30
2022-09-07T02:13:06.874Z,15.70
2022-09-07T02:15:17.993Z,14.70
2022-09-07T02:17:24.678Z,17.73
2022-09-07T02:19:30.354Z,14.10
2022-09-07T02:21:40.000Z,14.70
2022-09-07T02:23:48.510Z,16.07
2022-09-07T02:26:01.676Z,18.53
2022-09-07T02:28:15.636Z,15.70
2022-09-07T02:30:17.884Z,17.17
2022-09-07T02:32:20.360Z,16.90
2022-09-07T02:34:22.570Z,18.57
2022-09-07T02:36:26.699Z,22.37
2022-09-07T02:38:30.418Z,15.17
2022-09-07T02:40:32.820Z,16.13
2022-09-07T02:42:35.727Z,15.30
2022-09-07T02:44:39.853Z,14.90
2022-09-07T02:46:50.001Z,16.43
2022-09-07T02:49:34.539Z,14.50
2022-09-07T02:52:04.740Z,13.80
2022-09-07T02:54:15.894Z,12.60
2022-09-07T02:56:48.135Z,15.47
2022-09-07T02:59:04.468Z,15.60
2022-09-07T03:01:15.908Z,13.00
2022-09-07T03:03:26.123Z,14.80
2022-09-07T03:05:32.257Z,14.03
2022-09-07T03:07:49.484Z,13.30
2022-09-07T03:09:53.336Z,16.97
2022-09-07T03:11:55.507Z,17.60
2022-09-07T03:14:20.586Z,14.93
2022-09-07T03:16:22.776Z,12.60
2022-09-07T03:18:26.537Z,13.30
2022-09-07T03:20:28.683Z,14.87
2022-09-07T03:22:33.277Z,15.67
2022-09-07T03:24:36.741Z,15.23
2022-09-07T03:26:41.979Z,12.83
2022-09-07T03:28:44.091Z,14.40
2022-09-07T03:30:47.525Z,14.97
2022-09-07T03:32:49.785Z,16.73
2022-09-07T03:34:52.134Z,15.50
2022-09-07T03:36:54.254Z,15.73
2022-09-07T03:38:56.581Z,15.57
2022-09-07T03:41:03.292Z,14.80
2022-09-07T03:43:05.419Z,21.20
2022-09-07T03:45:08.496Z,14.80
2022-09-07T03:47:10.573Z,16.00
2022-09-07T03:49:12.711Z,13.90
2022-09-07T03:51:16.861Z,15.17
2022-09-07T03:53:19.019Z,16.27
2022-09-07T03:55:21.803Z,16.17
2022-09-07T03:57:23.964Z,13.07
2022-09-07T03:59:26.271Z,17.23
2022-09-07T04:01:28.514Z,14.33
2022-09-07T04:03:30.657Z,14.20
2022-09-07T04:05:32.768Z,15.23
2022-09-07T04:07:34.932Z,17.00
2022-09-07T04:09:37.057Z,13.80
2022-09-07T04:11:40.509Z,16.63
2022-09-07T04:13:43.237Z,12.27
2022-09-07T04:15:45.571Z,16.23
2022-09-07T04:17:48.302Z,14.87
2022-09-07T04:19:50.445Z,15.50
2022-09-07T04:21:52.927Z,14.07
2022-09-07T04:23:55.191Z,21.10
2022-09-07T04:25:57.360Z,14.53
2022-09-07T04:27:59.468Z,11.20
2022-09-07T04:30:01.663Z,11.67
2022-09-07T04:32:03.808Z,19.60
2022-09-07T04:34:06.584Z,12.27
2022-09-07T04:36:09.094Z,13.50
2022-09-07T04:38:15.346Z,12.83
2022-09-07T04:40:17.594Z,14.73
2022-09-07T04:42:19.722Z,12.93
2022-09-07T04:44:21.836Z,9.77
2022-09-07T04:46:31.315Z,16.03
2022-09-07T04:48:33.596Z,13.93
2022-09-07T04:50:35.766Z,14.40
2022-09-07T04:52:37.912Z,11.07
2022-09-07T04:54:40.051Z,11.83
2022-09-07T04:56:42.153Z,17.47
2022-09-07T04:58:44.967Z,13.43
2022-09-07T05:00:47.132Z,14.17
2022-09-07T05:02:49.301Z,11.47
2022-09-07T05:04:51.781Z,16.53
2022-09-07T05:06:54.554Z,12.23
2022-09-07T05:08:58.363Z,15.07
2022-09-07T05:11:00.474Z,13.27
2022-09-07T05:13:02.962Z,13.60
2022-09-07T05:15:05.651Z,17.80
2022-09-07T05:17:07.844Z,13.30
2022-09-07T05:19:13.970Z,12.77
2022-09-07T05:21:18.956Z,10.80
2022-09-07T05:23:22.248Z,13.40
2022-09-07T05:25:24.480Z,12.60
2022-09-07T05:27:26.581Z,13.40
2022-09-07T05:31:50.979Z,11.30
2022-09-07T05:36:17.763Z,11.03
2022-09-07T05:38:19.927Z,11.00
2022-09-07T05:40:22.662Z,12.97
2022-09-07T05:42:24.868Z,11.87
2022-09-07T05:46:44.769Z,11.03
2022-09-07T05:48:47.154Z,13.60
2022-09-07T05:50:53.156Z,13.57
2022-09-07T05:52:55.279Z,14.57
2022-09-07T05:55:07.712Z,14.87
2022-09-07T05:57:15.551Z,13.30
2022-09-07T05:59:17.938Z,14.80
2022-09-07T06:01:20.043Z,12.67
2022-09-07T06:03:22.392Z,11.50
2022-09-07T06:05:24.676Z,12.37
2022-09-07T06:07:26.806Z,12.90
2022-09-07T06:09:30.644Z,13.63
2022-09-07T06:11:32.971Z,13.80
2022-09-07T06:13:35.478Z,12.97
2022-09-07T06:15:37.602Z,9.60
2022-09-07T06:17:40.149Z,10.57
2022-09-07T06:19:42.327Z,15.63
2022-09-07T06:21:44.526Z,12.10
2022-09-07T06:23:47.372Z,13.30
2022-09-07T06:25:49.904Z,13.40
2022-09-07T06:27:54.034Z,15.60
2022-09-07T06:29:56.269Z,11.40
2022-09-07T06:34:20.545Z,9.87
2022-09-07T06:36:29.688Z,12.93
2022-09-07T06:38:33.594Z,9.93
2022-09-07T06:40:35.780Z,10.00
2022-09-07T06:42:38.798Z,15.30
2022-09-07T06:44:41.007Z,11.30
2022-09-07T06:49:05.244Z,11.83
2022-09-07T06:51:13.747Z,13.00
2022-09-07T06:55:33.445Z,9.63
2022-09-07T06:57:35.594Z,10.20
2022-09-07T06:59:38.222Z,13.10
2022-09-07T07:01:40.360Z,12.37
2022-09-07T07:03:43.099Z,10.97
2022-09-07T07:05:52.702Z,10.97
2022-09-07T07:07:56.392Z,11.27
2022-09-07T07:09:58.579Z,9.10
2022-09-07T07:12:00.764Z,15.30
2022-09-07T07:14:03.595Z,13.13
2022-09-07T07:16:08.199Z,12.47
2022-09-07T07:18:30.947Z,14.60
2022-09-07T07:20:35.318Z,12.80
2022-09-07T07:22:53.009Z,12.90
2022-09-07T07:24:55.173Z,10.47
2022-09-07T07:26:57.587Z,18.73
2022-09-07T07:31:10.564Z,10.80
2022-09-07T07:33:14.220Z,12.60
2022-09-07T07:35:16.466Z,8.83
2022-09-07T07:37:18.811Z,9.70
2022-09-07T07:42:03.008Z,11.17
2022-09-07T07:44:05.981Z,17.00
2022-09-07T07:46:08.666Z,18.17
2022-09-07T07:48:12.143Z,11.30
2022-09-07T07:55:00.976Z,13.93
2022-09-07T07:57:04.273Z,9.70
2022-09-07T07:59:06.582Z,12.07
2022-09-07T08:01:11.636Z,18.87
2022-09-07T08:03:13.786Z,13.43
2022-09-07T08:05:17.231Z,11.47
2022-09-07T08:07:19.559Z,15.40
2022-09-07T08:09:21.642Z,12.87
2022-09-07T08:11:23.900Z,11.67
2022-09-07T08:13:26.115Z,12.77
2022-09-07T08:15:28.207Z,13.57
2022-09-07T08:17:30.316Z,13.37
2022-09-07T08:19:32.424Z,13.87
2022-09-07T08:21:34.792Z,11.03
2022-09-07T08:23:37.213Z,9.83
2022-09-07T08:25:39.667Z,17.63
2022-09-07T08:27:41.768Z,16.60
2022-09-07T08:29:43.823Z,10.73
2022-09-07T08:31:46.058Z,16.60
2022-09-07T08:33:48.502Z,11.60
2022-09-07T08:35:56.478Z,10.10
2022-09-07T08:37:58.589Z,9.80
2022-09-07T08:40:00.751Z,12.43
2022-09-07T08:42:13.411Z,13.40
2022-09-07T08:44:18.570Z,12.57
2022-09-07T08:46:58.163Z,12.03
2022-09-07T08:49:01.318Z,13.13
2022-09-07T08:51:10.892Z,9.23
2022-09-07T08:53:14.632Z,13.40
2022-09-07T08:55:21.822Z,13.03
2022-09-07T08:57:30.176Z,19.77
2022-09-07T08:59:46.547Z,12.27
2022-09-07T09:04:15.789Z,12.00
2022-09-07T09:06:39.076Z,12.23
2022-09-07T09:08:59.206Z,11.53
2022-09-07T09:11:06.187Z,11.10
2022-09-07T09:13:19.857Z,13.60
2022-09-07T09:15:26.524Z,16.10
2022-09-07T09:17:48.226Z,17.30
2022-09-07T09:19:59.178Z,12.50
2022-09-07T09:22:14.667Z,11.37
2022-09-07T09:24:19.345Z,11.90
2022-09-07T09:26:24.436Z,13.43
2022-09-07T09:28:28.907Z,11.00
2022-09-07T09:30:33.918Z,14.00
2022-09-07T09:32:41.690Z,15.00
2022-09-07T09:35:00.906Z,10.97
2022-09-07T09:37:03.017Z,16.97
2022-09-07T09:39:25.176Z,11.93
2022-09-07T09:41:36.555Z,14.93
2022-09-07T09:43:47.679Z,15.57
2022-09-07T09:48:28.434Z,13.10
2022-09-07T09:53:00.811Z,9.77
2022-09-07T09:55:33.247Z,12.50
2022-09-07T10:00:23.583Z,10.80
2022-09-07T10:04:54.713Z,9.77
2022-09-07T10:07:04.499Z,16.90
2022-09-07T10:09:11.912Z,9.50
2022-09-07T10:11:15.554Z,9.30
2022-09-07T10:13:29.425Z,11.63
2022-09-07T10:15:40.569Z,13.23
2022-09-07T10:17:43.853Z,10.50
2022-09-07T10:19:45.927Z,9.77
2022-09-07T10:21:55.910Z,12.67
2022-09-07T10:24:23.423Z,12.20
2022-09-07T10:26:37.404Z,10.33
2022-09-07T10:31:11.161Z,18.27
2022-09-07T10:33:22.602Z,12.13
2022-09-07T10:35:30.925Z,12.63
2022-09-07T10:38:00.931Z,13.00
2022-09-07T10:40:06.950Z,15.03
2022-09-07T10:42:09.203Z,13.77
2022-09-07T10:44:40.191Z,13.10
2022-09-07T10:47:06.145Z,10.90
2022-09-07T10:49:14.235Z,12.07
2022-09-07T10:51:26.710Z,11.43
2022-09-07T10:54:29.292Z,13.77
2022-09-07T10:56:26.253Z,13.17
2022-09-07T10:59:19.933Z,11.03
2022-09-07T11:01:37.000Z,9.83
2022-09-07T11:03:51.922Z,11.40
2022-09-07T11:05:57.165Z,10.70
2022-09-07T11:08:22.845Z,11.67
2022-09-07T11:10:32.606Z,16.40
2022-09-07T11:12:36.918Z,10.23
2022-09-07T11:14:43.414Z,10.70
2022-09-07T11:16:52.439Z,10.93
2022-09-07T11:21:58.495Z,10.47
2022-09-07T11:24:11.218Z,9.90
2022-09-07T11:26:20.714Z,13.70
2022-09-07T11:28:38.513Z,11.13
2022-09-07T11:30:45.815Z,10.90
2022-09-07T11:33:14.221Z,10.10
2022-09-07T11:35:28.994Z,11.43
2022-09-07T11:37:41.714Z,14.00
2022-09-07T11:39:52.956Z,15.53
2022-09-07T11:42:42.899Z,12.43
2022-09-07T11:44:41.326Z,12.63
2022-09-07T11:46:43.920Z,11.50
2022-09-07T11:48:58.682Z,11.03
2022-09-07T11:51:09.385Z,17.30
2022-09-07T11:53:23.325Z,9.10
2022-09-07T11:55:28.495Z,10.57
2022-09-07T11:57:50.428Z,16.60
2022-09-07T12:00:00.796Z,8.63
2022-09-07T12:02:57.710Z,9.90
2022-09-07T12:05:05.312Z,8.57
2022-09-07T12:07:33.616Z,11.50
2022-09-07T12:09:47.970Z,12.70
2022-09-07T12:12:08.143Z,11.67
2022-09-07T12:14:15.998Z,8.67
2022-09-07T12:16:36.363Z,11.17
2022-09-07T12:18:44.269Z,9.80
2022-09-07T12:20:47.807Z,9.47
2022-09-07T12:23:04.864Z,9.13
2022-09-07T12:25:09.336Z,8.33
2022-09-07T12:27:11.377Z,15.73
2022-09-07T12:29:22.845Z,12.43
2022-09-07T12:31:57.262Z,9.00
2022-09-07T12:34:31.176Z,14.60
2022-09-07T12:36:33.050Z,12.87
2022-09-07T12:39:06.053Z,13.67
2022-09-07T12:41:26.071Z,8.90
2022-09-07T12:43:28.050Z,10.37
2022-09-07T12:45:29.949Z,7.80
2022-09-07T12:47:31.884Z,11.10
2022-09-07T12:49:49.450Z,8.03
2022-09-07T12:52:31.560Z,13.50
2022-09-07T12:55:04.387Z,7.87
2022-09-07T12:57:34.423Z,12.80
2022-09-07T12:59:58.546Z,9.37
2022-09-07T13:02:50.085Z,8.37
2022-09-07T13:05:18.645Z,8.00
2022-09-07T13:08:08.340Z,9.87
2022-09-07T13:10:27.855Z,9.30
2022-09-07T13:15:33.523Z,8.27
2022-09-07T13:17:36.229Z,11.10
2022-09-07T13:19:50.397Z,8.60
2022-09-07T13:21:52.393Z,10.20
2022-09-07T13:27:00.945Z,10.30
2022-09-07T13:29:04.485Z,8.73
2022-09-07T13:31:17.831Z,9.37
2022-09-07T13:33:26.049Z,10.60
2022-09-07T13:35:29.434Z,7.83
2022-09-07T13:37:47.494Z,7.77
2022-09-07T13:39:54.791Z,7.93
2022-09-07T13:41:58.516Z,10.63
2022-09-07T13:44:02.356Z,10.20
2022-09-07T13:46:14.249Z,7.57
2022-09-07T13:48:35.768Z,7.60
2022-09-07T13:50:59.009Z,9.93
2022-09-07T13:53:03.766Z,9.63
2022-09-07T13:55:05.719Z,8.07
2022-09-07T13:57:29.095Z,9.47
2022-09-07T13:59:34.084Z,7.97
2022-09-07T14:01:43.707Z,9.40
2022-09-07T14:03:56.143Z,10.47
2022-09-07T14:06:22.990Z,10.20
2022-09-07T14:08:26.769Z,9.03
2022-09-07T14:10:29.174Z,10.93
2022-09-07T14:12:31.289Z,10.70
2022-09-07T14:14:33.348Z,10.30
2022-09-07T14:16:35.915Z,9.13
2022-09-07T14:18:39.689Z,12.03
2022-09-07T14:20:59.630Z,10.53
2022-09-07T14:23:01.625Z,11.00
2022-09-07T14:25:05.790Z,13.33
2022-09-07T14:27:23.364Z,7.63
2022-09-07T14:29:30.136Z,11.50
2022-09-07T14:31:32.335Z,9.37
2022-09-07T14:33:34.581Z,8.00
2022-09-07T14:35:40.543Z,11.33
2022-09-07T14:37:42.866Z,10.53
2022-09-07T14:39:48.097Z,8.50
2022-09-07T14:41:50.918Z,7.87
2022-09-07T14:43:58.356Z,9.57
2022-09-07T14:46:22.249Z,10.57
2022-09-07T14:48:31.493Z,13.90
2022-09-07T14:50:38.980Z,13.53
2022-09-07T14:53:33.315Z,13.40
2022-09-07T14:55:39.148Z,9.73
2022-09-07T14:57:41.367Z,8.73
2022-09-07T14:59:45.598Z,8.67
2022-09-07T15:01:47.582Z,8.97
2022-09-07T15:03:49.530Z,15.13
2022-09-07T15:05:51.616Z,7.93
2022-09-07T15:07:55.149Z,12.40
2022-09-07T15:10:16.123Z,9.30
2022-09-07T15:12:27.255Z,8.53
2022-09-07T15:14:34.873Z,7.20
2022-09-07T15:16:42.564Z,7.67
2022-09-07T15:19:05.697Z,11.47
2022-09-07T15:21:11.018Z,7.53
2022-09-07T15:23:17.935Z,7.20
2022-09-07T15:25:19.826Z,6.60
2022-09-07T15:27:27.606Z,7.67
2022-09-07T15:29:30.364Z,5.90
2022-09-07T15:31:43.333Z,16.53
2022-09-07T15:33:47.704Z,11.00
2022-09-07T15:35:50.567Z,7.70
2022-09-07T15:40:20.635Z,9.53
2022-09-07T15:44:44.734Z,6.00
2022-09-07T15:49:12.510Z,7.20
2022-09-07T15:55:58.562Z,10.73
2022-09-07T15:58:11.490Z,8.87
2022-09-07T16:00:14.385Z,7.93
2022-09-07T16:04:39.301Z,9.93
2022-09-07T16:06:41.473Z,9.17
2022-09-07T16:08:43.344Z,12.73
2022-09-07T16:10:45.834Z,7.47
2022-09-07T16:13:09.934Z,6.30
2022-09-07T16:15:12.657Z,8.07
2022-09-07T16:19:41.114Z,9.20
2022-09-07T16:21:43.217Z,7.00
2022-09-07T16:23:49.258Z,9.40
2022-09-07T16:25:59.458Z,7.93
2022-09-07T16:28:01.473Z,11.53
2022-09-07T16:30:05.241Z,7.97
2022-09-07T16:34:30.091Z,12.38
2022-09-07T16:36:32.082Z,17.57
2022-09-07T16:38:49.586Z,12.07
2022-09-07T16:40:51.878Z,8.87
2022-09-07T16:42:53.832Z,8.43
2022-09-07T16:46:02.587Z,13.47
2022-09-07T16:47:17.776Z,12.50
2022-09-07T16:49:19.769Z,10.13
2022-09-07T16:51:22.989Z,11.90
2022-09-07T16:53:24.928Z,8.67
2022-09-07T16:55:27.041Z,12.40
2022-09-07T16:58:35.443Z,10.03
2022-09-07T16:59:50.975Z,9.80
2022-09-07T17:01:53.731Z,10.67
2022-09-07T17:03:56.200Z,13.70
2022-09-07T17:06:03.867Z,10.60
2022-09-07T17:08:07.237Z,11.00
2022-09-07T17:10:10.702Z,14.73
2022-09-07T17:12:13.063Z,17.90
2022-09-07T17:14:15.683Z,15.27
2022-09-07T17:16:22.692Z,14.20
2022-09-07T17:20:58.377Z,12.53
2022-09-07T17:23:01.558Z,12.23
2022-09-07T17:25:03.779Z,10.73
2022-09-07T17:27:05.773Z,12.67
2022-09-07T17:29:07.786Z,10.63
2022-09-07T17:33:45.447Z,11.63
2022-09-07T17:35:47.711Z,10.87
2022-09-07T17:37:49.715Z,11.07
2022-09-07T17:39:51.938Z,9.70
2022-09-07T17:41:54.603Z,11.43
2022-09-07T17:43:57.938Z,11.00
2022-09-07T17:46:22.945Z,10.60
2022-09-07T17:48:25.024Z,12.60
2022-09-07T17:50:26.953Z,10.90
2022-09-07T17:52:28.953Z,10.37
2022-09-07T17:54:30.966Z,9.90
2022-09-07T17:56:33.790Z,16.90
2022-09-07T17:58:40.464Z,14.43
2022-09-07T18:00:42.846Z,11.83
2022-09-07T18:02:46.392Z,15.80
2022-09-07T18:04:50.978Z,10.43
2022-09-07T18:06:54.075Z,18.50
2022-09-07T18:08:56.677Z,12.83
2022-09-07T18:13:35.246Z,11.87
2022-09-07T18:15:40.135Z,15.20
2022-09-07T18:17:42.323Z,11.80
2022-09-07T18:19:44.733Z,12.97
2022-09-07T18:21:48.021Z,16.80
2022-09-07T18:23:57.283Z,16.50
2022-09-07T18:26:00.671Z,15.20
2022-09-07T18:30:25.909Z,18.60
2022-09-07T18:32:27.832Z,15.17
2022-09-07T18:34:31.770Z,14.27
2022-09-07T18:36:35.936Z,12.83
2022-09-07T18:38:38.075Z,15.17
2022-09-07T18:40:40.608Z,16.87
2022-09-07T18:42:43.053Z,17.67
2022-09-07T18:47:17.533Z,15.53
2022-09-07T18:49:23.522Z,22.27
2022-09-07T18:51:27.451Z,14.83
2022-09-07T18:53:29.755Z,19.40
2022-09-07T18:55:32.848Z,17.70
2022-09-07T18:57:36.177Z,18.00
2022-09-07T18:59:38.288Z,15.87
2022-09-07T19:01:40.289Z,22.80
2022-09-07T19:03:43.403Z,16.90
2022-09-07T19:05:49.983Z,15.97
2022-09-07T19:07:52.566Z,15.70
2022-09-07T19:09:54.839Z,15.07
2022-09-07T19:11:57.084Z,18.23
2022-09-07T19:14:00.794Z,14.83
2022-09-07T19:16:08.163Z,19.97
2022-09-07T19:18:10.610Z,22.00
2022-09-07T19:20:12.623Z,17.53
2022-09-07T19:22:14.594Z,17.20
2022-09-07T19:24:18.295Z,21.67
2022-09-07T19:26:20.264Z,16.33
2022-09-07T19:28:22.420Z,22.23
2022-09-07T19:30:24.382Z,22.60
2022-09-07T19:32:26.295Z,19.27
2022-09-07T19:34:28.300Z,20.10
2022-09-07T19:36:32.710Z,19.63
2022-09-07T19:38:34.704Z,22.23
2022-09-07T19:40:36.753Z,20.00
2022-09-07T19:42:38.966Z,18.80
2022-09-07T19:44:40.937Z,25.20
2022-09-07T19:46:44.445Z,20.07
2022-09-07T19:48:46.628Z,18.73
2022-09-07T19:50:50.418Z,19.13
2022-09-07T19:52:52.339Z,25.27
2022-09-07T19:54:54.677Z,22.87
2022-09-07T19:56:56.535Z,24.13
2022-09-07T19:58:58.724Z,26.27
2022-09-07T20:01:06.717Z,21.00
2022-09-07T20:03:10.513Z,25.73
2022-09-07T20:05:14.597Z,27.27
2022-09-07T20:07:16.747Z,19.10
2022-09-07T20:09:19.909Z,22.27
2022-09-07T20:11:22.139Z,22.17
2022-09-07T20:13:24.073Z,26.53
2022-09-07T20:15:26.391Z,29.50
2022-09-07T20:17:33.056Z,24.23
2022-09-07T20:19:37.143Z,20.30
2022-09-07T20:21:39.104Z,22.53
2022-09-07T20:23:41.482Z,18.50
2022-09-07T20:25:43.663Z,19.43
2022-09-07T20:27:45.633Z,21.30
2022-09-07T20:29:47.606Z,32.77
2022-09-07T20:31:49.770Z,23.23
2022-09-07T20:33:51.970Z,19.50
2022-09-07T20:35:53.972Z,19.00
2022-09-07T20:37:55.867Z,25.17
2022-09-07T20:39:57.817Z,20.40
2022-09-07T20:41:59.754Z,18.50
2022-09-07T20:44:03.950Z,20.03
2022-09-07T20:46:06.064Z,20.17
2022-09-07T20:48:08.016Z,23.00
2022-09-07T20:50:10.389Z,22.47
2022-09-07T20:52:12.324Z,28.67
2022-09-07T20:54:14.263Z,26.67
2022-09-07T20:56:17.287Z,23.60
2022-09-07T20:58:19.148Z,26.70
2022-09-07T21:00:21.099Z,23.07
2022-09-07T21:02:23.097Z,19.10
2022-09-07T21:04:26.438Z,23.90
2022-09-07T21:06:29.417Z,18.53
2022-09-07T21:08:35.232Z,28.00
2022-09-07T21:10:41.596Z,22.60
2022-09-07T21:12:44.030Z,22.80
2022-09-07T21:14:46.858Z,18.70
2022-09-07T21:16:48.798Z,19.47
2022-09-07T21:18:55.630Z,25.27
2022-09-07T21:21:18.737Z,20.83
2022-09-07T21:23:20.085Z,18.50
2022-09-07T21:25:22.130Z,18.60
2022-09-07T21:27:24.457Z,15.87
2022-09-07T21:29:26.491Z,16.13
2022-09-07T21:31:29.895Z,15.20
2022-09-07T21:33:33.751Z,18.60
2022-09-07T21:35:35.796Z,14.70
2022-09-07T21:37:37.742Z,15.40
2022-09-07T21:39:39.791Z,19.23
2022-09-07T21:41:42.983Z,16.23
2022-09-07T21:43:45.051Z,14.30
2022-09-07T21:45:46.948Z,17.80
2022-09-07T21:47:48.884Z,16.50
2022-09-07T21:49:51.311Z,20.87
2022-09-07T21:51:53.247Z,19.00
2022-09-07T21:53:56.959Z,17.57
2022-09-07T21:56:00.518Z,17.63
2022-09-07T21:58:02.421Z,19.30
2022-09-07T22:00:06.057Z,19.30
2022-09-07T22:02:10.759Z,21.60
2022-09-07T22:04:13.522Z,17.57
2022-09-07T22:06:15.496Z,18.30
2022-09-07T22:08:17.749Z,19.93
2022-09-07T22:10:19.721Z,22.73
2022-09-07T22:12:21.819Z,19.33
2022-09-07T22:14:23.762Z,17.27
2022-09-07T22:16:26.002Z,18.33
2022-09-07T22:18:30.280Z,18.43
2022-09-07T22:20:33.278Z,17.27
2022-09-07T22:22:35.538Z,18.37
2022-09-07T22:24:37.823Z,20.17
2022-09-07T22:26:39.785Z,19.40
2022-09-07T22:28:41.769Z,19.33
2022-09-07T22:30:43.699Z,20.50
2022-09-07T22:32:47.680Z,20.37
2022-09-07T22:34:49.677Z,19.70
2022-09-07T22:36:51.587Z,18.90
2022-09-07T22:38:56.188Z,21.70
2022-09-07T22:41:06.525Z,18.13
2022-09-07T22:43:08.422Z,16.97
2022-09-07T22:45:10.553Z,17.13
2022-09-07T22:47:12.472Z,18.80
2022-09-07T22:49:15.914Z,18.10
2022-09-07T22:51:17.882Z,18.23
2022-09-07T22:53:20.592Z,20.23
2022-09-07T22:55:22.529Z,18.30
2022-09-07T22:57:24.595Z,24.33
2022-09-07T22:59:26.732Z,18.10
2022-09-07T23:01:30.042Z,25.23
2022-09-07T23:03:33.706Z,22.17
2022-09-07T23:05:36.942Z,24.17
2022-09-07T23:07:38.925Z,27.73
2022-09-07T23:09:40.852Z,24.07
2022-09-07T23:11:43.736Z,20.63
2022-09-07T23:13:45.707Z,22.00
2022-09-07T23:15:48.513Z,21.63
2022-09-07T23:17:51.014Z,21.50
2022-09-07T23:19:53.124Z,22.37
2022-09-07T23:21:55.239Z,19.77
2022-09-07T23:23:58.636Z,21.40
2022-09-07T23:26:02.385Z,23.80
2022-09-07T23:28:05.314Z,17.77
2022-09-07T23:30:07.786Z,26.90
2022-09-07T23:32:09.777Z,20.47
2022-09-07T23:34:11.748Z,19.43
2022-09-07T23:36:13.767Z,24.87
2022-09-07T23:38:16.081Z,27.90
2022-09-07T23:40:19.184Z,25.20
2022-09-07T23:42:21.132Z,35.50
2022-09-07T23:44:23.262Z,25.83
2022-09-07T23:46:25.299Z,23.67
2022-09-07T23:48:27.768Z,21.20
2022-09-07T23:50:29.705Z,20.40
2022-09-07T23:52:32.280Z,25.47
2022-09-07T23:54:34.258Z,26.87
2022-09-07T23:56:37.936Z,19.83
2022-09-07T23:58:39.887Z,22.30
